Time;durP1;ratioP1;P1;durP2;ratioP2;P2;SDS_P1;SDS_P2;PMS_P1;PMS_P2;Temp;Humidity;BMP_temperature;BMP_pressure;BME280_temperature;BME280_humidity;BME280_pressure;Samples;Min_cycle;Max_cycle;Signal;HPM_P1;HPM_P2
2021/08/14 00:02:17;;;;;;;5.03;3.30;;;;;;;24.22;45.74;101965.22;5022578;28;20033;-61
2021/08/14 00:04:42;;;;;;;5.95;2.75;;;;;;;24.16;45.86;101952.28;5016070;28;20034;-61
2021/08/14 00:07:08;;;;;;;8.57;3.58;;;;;;;24.16;46.66;101955.03;5021984;28;20084;-61
2021/08/14 00:09:36;;;;;;;8.32;3.15;;;;;;;24.18;45.97;101959.25;5021514;28;20028;-61
2021/08/14 00:12:03;;;;;;;9.77;2.20;;;;;;;24.17;45.73;101959.47;5024250;28;20356;-61
2021/08/14 00:14:29;;;;;;;5.03;2.47;;;;;;;24.15;46.33;101964.25;5015385;28;20029;-61
2021/08/14 00:16:54;;;;;;;4.30;2.15;;;;;;;24.11;45.83;101962.97;5033388;28;20080;-61
2021/08/14 00:19:19;;;;;;;6.60;2.58;;;;;;;24.05;46.35;101955.47;5033430;28;20079;-61
2021/08/14 00:21:45;;;;;;;6.07;3.05;;;;;;;24.06;46.58;101962.66;5031794;28;20060;-61
2021/08/14 00:24:10;;;;;;;7.22;3.20;;;;;;;24.08;46.41;101963.31;5033375;28;20029;-61
2021/08/14 00:26:36;;;;;;;14.68;3.60;;;;;;;24.08;46.86;101957.84;5033308;28;20022;-60
2021/08/14 00:29:01;;;;;;;10.25;3.33;;;;;;;24.13;46.10;101960.88;5031736;28;20053;-60
2021/08/14 00:31:27;;;;;;;9.48;3.60;;;;;;;24.03;46.51;101935.66;5033362;28;20036;-61
2021/08/14 00:33:52;;;;;;;5.13;2.83;;;;;;;24.15;46.61;101953.31;5031795;28;20040;-61
2021/08/14 00:36:17;;;;;;;5.63;2.72;;;;;;;24.15;46.31;101953.31;5031715;28;20085;-61
2021/08/14 00:38:43;;;;;;;7.55;2.90;;;;;;;24.12;46.29;101948.25;5033558;28;20036;-62
2021/08/14 00:41:08;;;;;;;10.13;3.53;;;;;;;24.13;46.73;101944.44;5033645;28;20018;-61
2021/08/14 00:43:33;;;;;;;8.93;3.60;;;;;;;24.16;46.78;101946.81;5032121;28;20033;-61
2021/08/14 00:46:02;;;;;;;6.63;3.13;;;;;;;24.13;46.44;101933.50;5031695;28;20429;-61
2021/08/14 00:48:28;;;;;;;13.90;2.95;;;;;;;24.17;46.95;101940.31;5032741;28;20100;-61
2021/08/14 00:50:53;;;;;;;9.90;3.25;;;;;;;24.18;45.85;101947.44;5031910;28;20128;-61
2021/08/14 00:53:19;;;;;;;6.45;3.30;;;;;;;24.20;46.47;101940.75;5031560;28;20113;-61
2021/08/14 00:55:45;;;;;;;6.05;3.50;;;;;;;24.24;46.27;101946.69;5033024;28;20083;-61
2021/08/14 00:58:12;;;;;;;9.32;3.22;;;;;;;24.25;46.81;101932.81;5031889;28;20028;-61
2021/08/14 01:00:39;;;;;;;10.05;3.17;;;;;;;24.25;46.44;101926.50;5032913;28;20029;-61
2021/08/14 01:03:04;;;;;;;7.15;2.67;;;;;;;24.28;45.96;101928.84;5032748;28;20076;-61
2021/08/14 01:05:30;;;;;;;8.95;3.10;;;;;;;24.29;45.97;101925.06;5031883;28;20029;-61
2021/08/14 01:07:55;;;;;;;7.38;3.05;;;;;;;24.27;46.10;101924.41;5034648;28;20055;-61
2021/08/14 01:10:22;;;;;;;7.20;2.95;;;;;;;24.30;46.32;101934.97;5036215;28;20025;-61
2021/08/14 01:12:50;;;;;;;8.00;3.10;;;;;;;24.30;46.31;101932.25;5036400;28;20458;-61
2021/08/14 01:15:15;;;;;;;9.20;3.75;;;;;;;24.28;46.21;101931.59;5036193;28;20445;-61
2021/08/14 01:17:40;;;;;;;7.55;3.22;;;;;;;24.27;46.40;101929.88;5035003;28;20053;-61
2021/08/14 01:20:07;;;;;;;6.13;3.03;;;;;;;24.23;46.53;101929.41;5035425;28;20057;-61
2021/08/14 01:22:34;;;;;;;8.43;3.58;;;;;;;24.19;46.49;101924.53;5035930;28;20025;-61
2021/08/14 01:24:59;;;;;;;10.05;3.70;;;;;;;24.14;45.44;101929.72;5036254;28;20032;-61
2021/08/14 01:27:25;;;;;;;4.60;2.75;;;;;;;24.06;46.21;101921.59;5035745;28;20030;-61
2021/08/14 01:29:50;;;;;;;6.38;2.97;;;;;;;24.04;45.52;101920.91;5035820;28;20050;-61
2021/08/14 01:32:16;;;;;;;9.65;2.50;;;;;;;24.01;46.47;101918.56;5036160;28;20419;-61
2021/08/14 01:34:42;;;;;;;10.38;2.95;;;;;;;23.93;45.83;101919.50;5036029;28;20029;-61
2021/08/14 01:37:08;;;;;;;6.32;3.50;;;;;;;23.88;46.45;101919.22;5035993;28;20030;-61
2021/08/14 01:39:33;;;;;;;9.60;2.88;;;;;;;23.85;46.28;101911.41;5035704;28;20117;-61
2021/08/14 01:42:04;;;;;;;11.82;3.35;;;;;;;23.80;46.70;101904.78;5034969;28;20036;-61
2021/08/14 01:44:30;;;;;;;7.40;3.25;;;;;;;23.76;45.78;101912.53;5034763;28;20025;-60
2021/08/14 01:46:56;;;;;;;7.13;3.65;;;;;;;23.73;46.21;101905.53;5035712;28;20021;-61
2021/08/14 01:49:22;;;;;;;8.63;3.65;;;;;;;23.71;45.97;101913.09;5034237;28;20025;-61
2021/08/14 01:51:48;;;;;;;16.70;3.22;;;;;;;23.70;46.86;101911.38;5034313;28;20433;-61
2021/08/14 01:54:14;;;;;;;8.45;3.25;;;;;;;23.68;46.68;101913.47;5035981;28;20032;-61
2021/08/14 01:56:39;;;;;;;7.28;3.90;;;;;;;23.64;46.99;101905.84;5034100;28;20474;-61
2021/08/14 01:59:05;;;;;;;9.27;4.20;;;;;;;23.66;47.16;101910.09;5035775;28;20029;-61
2021/08/14 02:01:31;;;;;;;7.85;3.75;;;;;;;23.65;46.30;101902.91;5034626;28;20025;-61
2021/08/14 02:03:57;;;;;;;7.20;3.35;;;;;;;23.66;47.25;101907.34;5034339;28;20048;-61
2021/08/14 02:06:24;;;;;;;5.07;2.92;;;;;;;23.66;46.92;101910.09;5035234;28;20470;-61
2021/08/14 02:08:49;;;;;;;7.47;3.60;;;;;;;23.68;47.44;101904.41;5035427;28;20385;-61
2021/08/14 02:11:20;;;;;;;13.20;4.40;;;;;;;23.64;47.12;101895.75;5033831;28;20051;-61
2021/08/14 02:13:47;;;;;;;8.60;3.75;;;;;;;23.68;47.14;101905.25;5035262;28;20021;-61
2021/08/14 02:16:13;;;;;;;8.77;3.78;;;;;;;23.70;47.35;101908.66;5035291;28;20025;-61
2021/08/14 02:18:39;;;;;;;10.95;4.05;;;;;;;23.62;46.59;101892.34;5034214;28;20355;-61
2021/08/14 02:21:05;;;;;;;11.50;5.47;;;;;;;23.66;47.37;101903.75;5033688;28;20026;-61
2021/08/14 02:23:31;;;;;;;9.48;4.65;;;;;;;23.63;47.30;101899.50;5034890;28;20122;-62
2021/08/14 02:25:57;;;;;;;15.98;3.88;;;;;;;23.65;46.97;101896.56;5016839;28;20486;-60
2021/08/14 02:28:22;;;;;;;8.48;3.42;;;;;;;23.68;46.84;101902.53;5013756;28;20054;-60
2021/08/14 02:30:47;;;;;;;11.68;3.90;;;;;;;23.66;46.97;101898.28;5013736;28;20168;-61
2021/08/14 02:33:13;;;;;;;14.98;5.88;;;;;;;23.67;47.34;101900.81;4997794;28;20030;-61
2021/08/14 02:35:38;;;;;;;8.38;3.95;;;;;;;23.67;47.36;101900.00;4994015;28;20424;-61
2021/08/14 02:38:03;;;;;;;10.32;4.20;;;;;;;23.68;47.41;101904.41;4994109;28;20029;-61
2021/08/14 02:40:29;;;;;;;10.73;4.22;;;;;;;23.67;47.94;101900.00;4997389;28;20467;-60
2021/08/14 02:42:54;;;;;;;11.85;4.60;;;;;;;23.67;47.72;101908.19;5015440;28;20482;-61
2021/08/14 02:45:20;;;;;;;8.10;4.03;;;;;;;23.62;47.86;101895.06;5014995;28;20036;-61
2021/08/14 02:47:45;;;;;;;11.82;5.18;;;;;;;23.64;47.88;101894.91;5014892;28;20022;-61
2021/08/14 02:50:11;;;;;;;15.23;4.45;;;;;;;23.60;46.93;101888.09;5014650;28;20026;-60
2021/08/14 02:52:36;;;;;;;11.88;4.50;;;;;;;23.62;46.87;101888.75;4996997;28;20026;-61
2021/08/14 02:55:02;;;;;;;9.63;3.97;;;;;;;23.60;47.51;101883.47;5014233;28;20181;-61
2021/08/14 02:57:27;;;;;;;8.63;3.95;;;;;;;23.55;47.54;101885.94;5014534;28;20057;-61
2021/08/14 02:59:52;;;;;;;6.32;3.63;;;;;;;23.51;47.37;101884.59;5014719;28;20026;-61
2021/08/14 03:02:18;;;;;;;6.63;3.65;;;;;;;23.55;47.33;101888.66;5013521;28;20432;-61
2021/08/14 03:04:44;;;;;;;11.07;3.92;;;;;;;23.50;46.95;101891.13;5014384;28;20498;-61
2021/08/14 03:07:10;;;;;;;14.40;4.43;;;;;;;23.50;47.24;101888.38;5007600;28;20361;-61
2021/08/14 03:09:35;;;;;;;8.25;3.38;;;;;;;23.45;46.96;101901.75;4994975;28;20053;-61
2021/08/14 03:12:00;;;;;;;6.35;3.72;;;;;;;23.45;47.70;101896.28;4994693;28;20070;-61
2021/08/14 03:14:26;;;;;;;8.90;4.03;;;;;;;23.41;47.12;101894.97;4977043;28;20129;-61
2021/08/14 03:16:51;;;;;;;6.50;3.47;;;;;;;23.36;47.40;101891.06;4995037;28;20081;-61
2021/08/14 03:19:16;;;;;;;10.35;4.00;;;;;;;23.31;47.58;101891.59;4994823;28;20034;-61
2021/08/14 03:21:42;;;;;;;7.40;4.18;;;;;;;23.29;47.38;101892.81;4994738;28;20053;-61
2021/08/14 03:24:07;;;;;;;12.55;3.78;;;;;;;23.23;46.90;101897.16;4993145;28;20025;-61
2021/08/14 03:26:32;;;;;;;9.00;3.42;;;;;;;23.17;47.26;101892.47;4994844;28;20029;-61
2021/08/14 03:28:58;;;;;;;13.68;4.05;;;;;;;23.15;47.21;101895.34;4994339;28;20065;-61
2021/08/14 03:31:23;;;;;;;7.90;3.75;;;;;;;23.10;46.85;101897.81;4994338;28;20058;-61
2021/08/14 03:33:49;;;;;;;10.60;4.20;;;;;;;23.04;47.58;101887.59;4994539;28;20096;-61
2021/08/14 03:36:14;;;;;;;10.10;3.80;;;;;;;22.96;46.89;101879.47;4993344;28;20029;-61
2021/08/14 03:38:40;;;;;;;7.68;3.50;;;;;;;22.95;47.61;101888.69;4993020;28;20081;-61
2021/08/14 03:41:07;;;;;;;6.13;3.50;;;;;;;22.89;47.14;101883.16;4994205;28;20101;-61
2021/08/14 03:43:32;;;;;;;8.40;3.45;;;;;;;22.85;47.30;101881.78;4994225;28;20026;-61
2021/08/14 03:45:58;;;;;;;14.95;4.10;;;;;;;22.78;47.14;101884.41;4994464;28;20489;-61
2021/08/14 03:48:23;;;;;;;8.25;3.42;;;;;;;22.81;47.69;101888.69;4992921;28;20088;-61
2021/08/14 03:50:48;;;;;;;10.05;3.40;;;;;;;22.75;47.71;101892.13;4994212;28;20058;-61
2021/08/14 03:53:14;;;;;;;11.85;3.47;;;;;;;22.75;46.99;101894.88;5002929;28;20475;-61
2021/08/14 03:55:39;;;;;;;11.48;3.67;;;;;;;22.72;47.88;101897.97;5012760;28;20022;-61
2021/08/14 03:58:04;;;;;;;10.43;3.83;;;;;;;22.67;47.37;101901.22;5012422;28;20072;-61
2021/08/14 04:00:30;;;;;;;7.82;3.40;;;;;;;22.61;47.85;101897.28;4995994;28;20072;-61
2021/08/14 04:02:55;;;;;;;12.75;4.10;;;;;;;22.58;47.91;101900.38;5012339;28;20084;-61
2021/08/14 04:05:20;;;;;;;9.35;3.60;;;;;;;22.55;47.88;101897.19;5013871;28;20072;-61
2021/08/14 04:07:46;;;;;;;9.27;3.47;;;;;;;22.54;48.00;101901.81;5012378;28;20026;-61
2021/08/14 04:10:11;;;;;;;8.75;3.83;;;;;;;22.49;47.32;101889.72;5013588;28;20030;-60
2021/08/14 04:12:36;;;;;;;14.27;4.00;;;;;;;22.50;47.87;101889.53;5012293;28;20022;-61
2021/08/14 04:15:04;;;;;;;9.50;4.00;;;;;;;22.42;48.07;101886.84;5013778;28;20034;-61
2021/08/14 04:17:30;;;;;;;6.45;3.70;;;;;;;22.45;48.09;101891.97;5013422;28;20378;-63
2021/08/14 04:19:55;;;;;;;9.77;5.15;;;;;;;22.43;48.17;101891.28;5013629;28;20018;-62
2021/08/14 04:22:20;;;;;;;12.40;3.33;;;;;;;22.42;47.33;101897.78;5013997;28;20481;-60
2021/08/14 04:24:46;;;;;;;11.85;3.25;;;;;;;22.36;47.92;101887.56;5013426;28;20519;-61
2021/08/14 04:27:11;;;;;;;8.57;4.07;;;;;;;22.41;48.10;101890.63;5012096;28;20475;-61
2021/08/14 04:29:36;;;;;;;11.32;4.00;;;;;;;22.43;48.08;101893.16;5013189;28;20407;-61
2021/08/14 04:32:02;;;;;;;9.48;3.78;;;;;;;22.40;48.14;101888.91;5013326;28;20360;-61
2021/08/14 04:34:27;;;;;;;16.65;4.10;;;;;;;22.40;47.69;101893.53;5012386;28;20057;-61
2021/08/14 04:36:53;;;;;;;7.03;3.22;;;;;;;22.38;47.05;101887.41;5012100;28;20029;-61
2021/08/14 04:39:18;;;;;;;10.23;3.80;;;;;;;22.37;47.86;101888.44;5013586;28;20068;-61
2021/08/14 04:41:43;;;;;;;8.70;3.30;;;;;;;22.32;47.89;101891.72;5013639;28;20137;-61
2021/08/14 04:44:09;;;;;;;5.45;3.15;;;;;;;22.31;47.65;101894.59;5016953;28;20030;-61
2021/08/14 04:46:34;;;;;;;7.35;3.35;;;;;;;22.34;47.92;101895.09;5016909;28;20026;-61
2021/08/14 04:48:59;;;;;;;6.22;2.72;;;;;;;22.35;48.26;101890.50;5017686;28;20034;-60
2021/08/14 04:51:25;;;;;;;7.25;2.97;;;;;;;22.35;47.60;101880.44;5016894;28;20029;-61
2021/08/14 04:53:50;;;;;;;7.93;3.65;;;;;;;22.32;47.72;101875.31;5015956;28;20026;-61
2021/08/14 04:56:16;;;;;;;8.00;4.18;;;;;;;22.34;48.03;101870.53;5016767;28;20513;-61
2021/08/14 04:58:41;;;;;;;8.70;3.45;;;;;;;22.40;47.55;101877.16;5017064;28;20050;-61
2021/08/14 05:01:06;;;;;;;13.85;3.40;;;;;;;22.45;47.49;101883.75;5015420;28;20072;-61
2021/08/14 05:03:32;;;;;;;17.90;3.97;;;;;;;22.51;48.11;101874.84;5016872;28;20028;-62
2021/08/14 05:05:57;;;;;;;13.63;3.45;;;;;;;22.58;48.18;101886.72;5015653;28;20455;-61
2021/08/14 05:08:23;;;;;;;9.35;3.15;;;;;;;22.69;47.84;101871.00;5015444;28;20018;-61
2021/08/14 05:10:48;;;;;;;17.38;3.90;;;;;;;22.85;47.03;101887.25;5016798;28;20025;-61
2021/08/14 05:13:14;;;;;;;7.00;3.22;;;;;;;22.95;47.92;101890.56;5016688;28;20033;-61
2021/08/14 05:15:39;;;;;;;6.28;2.42;;;;;;;23.01;47.29;101878.91;5002817;28;20023;-61
2021/08/14 05:18:05;;;;;;;9.02;3.20;;;;;;;23.09;47.76;101885.16;4996831;28;20053;-61
2021/08/14 05:20:30;;;;;;;7.95;3.40;;;;;;;23.26;47.67;101893.19;4997201;28;20054;-61
2021/08/14 05:22:56;;;;;;;9.40;3.22;;;;;;;23.34;47.43;101888.50;4997001;28;20030;-61
2021/08/14 05:25:21;;;;;;;9.75;3.58;;;;;;;23.49;46.67;101886.69;4996903;28;20033;-61
2021/08/14 05:27:46;;;;;;;9.45;3.58;;;;;;;23.60;47.52;101888.09;4996973;28;20555;-61
2021/08/14 05:30:12;;;;;;;10.85;3.78;;;;;;;23.71;46.77;101888.47;4996598;28;20113;-61
2021/08/14 05:32:38;;;;;;;9.52;3.63;;;;;;;23.87;46.18;101890.16;4996429;28;20054;-61
2021/08/14 05:35:03;;;;;;;10.52;3.10;;;;;;;24.01;47.06;101896.69;4996606;28;20076;-61
2021/08/14 05:37:29;;;;;;;12.30;3.97;;;;;;;24.15;46.61;101898.53;4997059;28;20126;-61
2021/08/14 05:39:54;;;;;;;13.50;3.13;;;;;;;24.27;46.61;101886.91;4995680;28;20030;-61
2021/08/14 05:42:20;;;;;;;14.35;3.70;;;;;;;24.44;46.36;101897.63;4996312;28;20123;-61
2021/08/14 05:44:45;;;;;;;8.77;4.22;;;;;;;24.55;46.44;101892.50;4997197;28;20088;-62
2021/08/14 05:47:10;;;;;;;6.88;3.40;;;;;;;24.69;46.28;101899.81;4995021;28;20023;-61
2021/08/14 05:49:36;;;;;;;19.27;4.13;;;;;;;24.84;45.55;101900.63;4996269;28;20535;-61
2021/08/14 05:52:04;;;;;;;10.98;4.00;;;;;;;25.00;45.64;101904.13;4996203;28;20041;-61
2021/08/14 05:54:30;;;;;;;8.77;4.30;;;;;;;25.16;45.14;101904.69;4996350;28;20365;-61
2021/08/14 05:56:55;;;;;;;10.90;4.63;;;;;;;25.32;44.93;101904.41;4996698;28;20065;-61
2021/08/14 05:59:21;;;;;;;9.48;4.40;;;;;;;25.48;44.71;101895.06;4996402;28;20033;-62
2021/08/14 06:01:46;;;;;;;9.70;3.95;;;;;;;25.67;44.65;101901.72;4994917;28;20022;-61
2021/08/14 06:04:11;;;;;;;12.05;3.63;;;;;;;25.84;44.65;101897.59;4995458;28;20490;-61
2021/08/14 06:06:41;;;;;;;13.73;4.15;;;;;;;26.08;44.04;101896.22;4996429;28;20034;-61
2021/08/14 06:09:07;;;;;;;6.95;3.67;;;;;;;26.27;44.09;101898.25;4996490;28;20455;-61
2021/08/14 06:11:32;;;;;;;9.55;4.32;;;;;;;26.47;43.72;101904.66;4996049;28;20160;-62
2021/08/14 06:13:58;;;;;;;8.00;3.90;;;;;;;26.45;44.14;101906.75;4995886;28;20030;-62
2021/08/14 06:16:23;;;;;;;10.55;3.28;;;;;;;26.36;44.22;101902.50;4995790;28;20019;-61
2021/08/14 06:18:48;;;;;;;8.50;3.05;;;;;;;26.58;43.48;101906.78;4994462;28;20019;-61
2021/08/14 06:21:14;;;;;;;9.48;3.15;;;;;;;26.76;43.64;101900.72;4995834;28;20030;-61
2021/08/14 06:23:39;;;;;;;11.40;4.47;;;;;;;26.92;43.17;101898.44;4995763;28;20025;-62
2021/08/14 06:26:05;;;;;;;11.80;3.05;;;;;;;27.08;43.01;101889.75;4994201;28;20121;-62
2021/08/14 06:28:31;;;;;;;10.88;3.40;;;;;;;27.09;42.76;101865.84;4993936;28;20061;-61
2021/08/14 06:30:56;;;;;;;11.27;3.42;;;;;;;27.30;41.97;101890.41;4993358;28;20045;-61
2021/08/14 06:33:22;;;;;;;9.25;4.03;;;;;;;27.36;41.99;101884.00;4994734;28;20034;-61
2021/08/14 06:35:47;;;;;;;11.35;3.15;;;;;;;27.45;42.84;101893.78;4994407;28;20027;-61
2021/08/14 06:38:13;;;;;;;8.88;3.22;;;;;;;27.56;42.17;101897.78;4994765;28;20022;-62
2021/08/14 06:40:38;;;;;;;13.35;3.63;;;;;;;27.71;42.57;101884.63;4994828;28;20080;-62
2021/08/14 06:43:03;;;;;;;10.20;3.35;;;;;;;27.84;42.20;101890.09;4976922;28;20022;-61
2021/08/14 06:45:29;;;;;;;16.92;3.40;;;;;;;27.94;41.57;101887.75;4994806;28;20034;-62
2021/08/14 06:47:54;;;;;;;8.48;3.95;;;;;;;28.12;41.58;101884.28;4994457;28;20035;-61
2021/08/14 06:50:20;;;;;;;11.73;2.85;;;;;;;28.27;41.75;101888.47;4995041;28;20452;-61
2021/08/14 06:52:45;;;;;;;8.63;2.67;;;;;;;28.45;41.51;101884.16;4994395;28;20041;-61
2021/08/14 06:55:11;;;;;;;10.85;3.42;;;;;;;28.59;40.31;101888.47;4994357;28;20472;-61
2021/08/14 06:57:36;;;;;;;12.98;3.30;;;;;;;28.67;40.15;101882.75;4993207;28;20367;-61
2021/08/14 07:00:04;;;;;;;7.25;2.88;;;;;;;28.81;39.99;101881.59;4994289;28;20504;-61
2021/08/14 07:02:29;;;;;;;8.95;2.67;;;;;;;28.89;40.21;101889.59;4992811;28;20114;-61
2021/08/14 07:04:54;;;;;;;9.80;2.97;;;;;;;28.87;40.39;101883.44;4992417;28;20022;-62
2021/08/14 07:07:20;;;;;;;6.45;3.22;;;;;;;28.93;39.22;101892.72;4994097;28;20018;-62
2021/08/14 07:09:45;;;;;;;11.93;3.00;;;;;;;28.99;39.60;101881.66;4993336;28;20033;-61
2021/08/14 07:12:11;;;;;;;7.50;2.40;;;;;;;29.08;39.50;101877.56;4994421;28;20061;-61
2021/08/14 07:14:36;;;;;;;6.28;2.60;;;;;;;29.23;39.83;101883.59;4993725;28;20037;-61
2021/08/14 07:17:02;;;;;;;7.72;3.53;;;;;;;29.32;39.25;101876.72;4994981;28;20027;-61
2021/08/14 07:19:28;;;;;;;5.63;2.20;;;;;;;29.47;39.20;101879.13;4998086;28;20030;-60
2021/08/14 07:21:53;;;;;;;8.20;2.42;;;;;;;29.61;38.43;101879.84;4996419;28;20483;-60
2021/08/14 07:24:19;;;;;;;5.93;2.25;;;;;;;29.67;38.86;101868.72;5013522;28;20037;-61
2021/08/14 07:26:45;;;;;;;9.38;2.17;;;;;;;29.77;38.34;101863.50;5011974;28;20467;-61
2021/08/14 07:29:10;;;;;;;6.88;2.17;;;;;;;29.88;37.55;101867.44;4975619;28;1103614;-61
2021/08/14 07:31:35;;;;;;;9.85;2.47;;;;;;;30.10;38.03;101871.41;5014128;28;20122;-61
2021/08/14 07:34:01;;;;;;;9.85;2.40;;;;;;;30.30;37.92;101858.16;5013983;28;20104;-61
2021/08/14 07:36:26;;;;;;;10.07;2.58;;;;;;;30.50;37.54;101864.28;5013831;28;20026;-61
2021/08/14 07:38:52;;;;;;;6.20;1.80;;;;;;;30.67;37.36;101866.38;5014048;28;20018;-61
2021/08/14 07:41:17;;;;;;;9.82;2.08;;;;;;;30.77;36.71;101858.31;4996210;28;20490;-61
2021/08/14 07:43:42;;;;;;;7.65;2.33;;;;;;;30.96;36.88;101868.28;5014340;28;20379;-62
2021/08/14 07:46:11;;;;;;;10.40;2.38;;;;;;;31.14;36.77;101855.16;5012748;28;20371;-61
2021/08/14 07:48:36;;;;;;;7.97;2.25;;;;;;;31.31;35.96;101859.97;5012703;28;20044;-61
2021/08/14 07:51:02;;;;;;;7.88;2.03;;;;;;;31.34;36.00;101865.91;5014648;28;20033;-60
2021/08/14 07:53:28;;;;;;;6.63;1.92;;;;;;;31.44;35.79;101866.13;5014021;28;20049;-61
2021/08/14 07:55:53;;;;;;;4.03;1.50;;;;;;;31.53;35.76;101867.47;5013238;28;20033;-61
2021/08/14 07:58:19;;;;;;;6.85;1.40;;;;;;;31.73;35.77;101875.41;5013880;28;20026;-61
2021/08/14 08:00:44;;;;;;;5.63;1.65;;;;;;;31.94;35.72;101873.94;5013866;28;20386;-61
2021/08/14 08:03:10;;;;;;;4.95;2.20;;;;;;;32.16;34.82;101869.44;5014039;28;20482;-59
2021/08/14 08:05:36;;;;;;;7.72;2.00;;;;;;;32.39;34.66;101877.63;5013710;28;20051;-59
2021/08/14 08:08:03;;;;;;;6.90;2.67;;;;;;;32.60;34.17;101881.69;5012470;28;20057;-59
2021/08/14 08:10:28;;;;;;;6.82;1.42;;;;;;;32.75;34.61;101868.91;5013066;28;20022;-59
2021/08/14 08:12:54;;;;;;;6.53;2.00;;;;;;;32.95;34.70;101871.19;4996453;28;20099;-58
2021/08/14 08:15:19;;;;;;;7.40;2.00;;;;;;;33.11;33.36;101872.34;5013959;28;20352;-61
2021/08/14 08:17:45;;;;;;;6.82;2.13;;;;;;;33.22;34.19;101863.88;5015381;28;20026;-61
2021/08/14 08:20:12;;;;;;;3.78;1.58;;;;;;;33.41;33.82;101867.25;5017673;28;20072;-61
2021/08/14 08:22:38;;;;;;;2.95;1.77;;;;;;;33.56;33.02;101855.53;5017292;28;20099;-61
2021/08/14 08:25:04;;;;;;;6.07;1.77;;;;;;;33.67;33.31;101847.06;5017538;28;20026;-62
2021/08/14 08:27:29;;;;;;;4.93;2.10;;;;;;;33.82;32.58;101854.78;5016287;28;20030;-61
2021/08/14 08:29:55;;;;;;;8.50;2.30;;;;;;;33.95;31.98;101849.66;5017238;28;20189;-62
2021/08/14 08:32:20;;;;;;;6.20;1.77;;;;;;;34.16;32.33;101849.94;5017148;28;20026;-61
2021/08/14 08:34:45;;;;;;;4.90;1.42;;;;;;;34.32;31.48;101855.41;5016970;28;20025;-61
2021/08/14 08:37:12;;;;;;;9.55;1.55;;;;;;;34.43;31.80;101865.56;5015821;28;20230;-61
2021/08/14 08:39:37;;;;;;;6.95;1.50;;;;;;;34.56;30.42;101853.19;5017266;28;20034;-59
2021/08/14 08:42:07;;;;;;;7.60;2.10;;;;;;;34.66;31.10;101855.22;5017190;28;20024;-59
2021/08/14 08:44:33;;;;;;;6.85;2.22;;;;;;;34.78;30.58;101850.34;5015921;28;20493;-59
2021/08/14 08:46:59;;;;;;;7.85;1.70;;;;;;;34.86;29.96;101842.34;5017015;28;20083;-59
2021/08/14 08:49:26;;;;;;;5.68;1.50;;;;;;;35.00;30.48;101840.78;5015828;28;20461;-59
2021/08/14 08:51:52;;;;;;;5.55;1.90;;;;;;;35.16;30.56;101840.91;5017734;28;20053;-59
2021/08/14 08:54:18;;;;;;;3.55;1.58;;;;;;;35.32;29.75;101845.47;5015425;28;20025;-59
2021/08/14 08:56:43;;;;;;;3.05;1.42;;;;;;;35.42;30.37;101842.75;5016854;28;20029;-59
2021/08/14 08:59:11;;;;;;;8.18;1.67;;;;;;;35.52;29.90;101837.25;5016675;28;20061;-59
2021/08/14 09:01:41;;;;;;;3.90;1.40;;;;;;;35.62;29.42;101840.13;5016912;28;20101;-59
2021/08/14 09:04:28;;;;;;;9.10;2.42;;;;;;;35.77;29.01;101840.19;5016575;28;20033;-59
2021/08/14 09:06:54;;;;;;;4.60;1.48;;;;;;;35.84;29.33;101835.22;5016710;28;20057;-59
2021/08/14 09:09:25;;;;;;;5.32;1.38;;;;;;;35.88;28.31;101833.53;5016703;28;20029;-59
2021/08/14 09:11:53;;;;;;;4.32;1.80;;;;;;;35.95;28.72;101834.13;5034462;28;20025;-59
2021/08/14 09:14:18;;;;;;;7.10;1.65;;;;;;;36.01;28.76;101827.47;5036506;28;20029;-60
2021/08/14 09:16:44;;;;;;;4.82;1.50;;;;;;;36.12;28.43;101829.22;5034937;28;20083;-59
2021/08/14 09:19:20;;;;;;;3.38;1.45;;;;;;;36.21;28.42;101833.13;5036386;28;20041;-60
2021/08/14 09:21:46;;;;;;;6.07;1.63;;;;;;;36.29;28.20;101840.13;5036391;28;20028;-60
2021/08/14 09:24:29;;;;;;;3.47;1.30;;;;;;;36.40;27.96;101838.19;5036056;28;20484;-60
2021/08/14 09:26:54;;;;;;;2.38;1.25;;;;;;;36.53;28.65;101830.13;5036215;28;20108;-60
2021/08/14 09:29:38;;;;;;;3.15;1.52;;;;;;;36.69;27.84;101828.19;5035438;28;20163;-60
2021/08/14 09:32:06;;;;;;;3.53;1.52;;;;;;;36.82;27.91;101833.25;5036465;28;20026;-60
2021/08/14 09:34:32;;;;;;;2.92;1.48;;;;;;;36.92;27.51;101833.22;5036029;28;20037;-60
2021/08/14 09:36:57;;;;;;;5.45;1.70;;;;;;;36.99;27.09;101833.81;5035881;28;20444;-59
2021/08/14 09:39:23;;;;;;;6.13;1.50;;;;;;;37.02;27.20;101833.22;5036243;28;20040;-59
2021/08/14 09:41:48;;;;;;;3.42;1.30;;;;;;;37.03;27.13;101831.28;5035924;28;20033;-59
2021/08/14 09:44:14;;;;;;;3.47;1.33;;;;;;;37.10;27.32;101824.31;5035808;28;20022;-60
2021/08/14 09:46:41;;;;;;;7.13;2.45;;;;;;;37.22;27.56;101818.38;5035679;28;20025;-59
2021/08/14 09:49:07;;;;;;;3.70;1.70;;;;;;;37.31;26.93;101814.75;5035608;28;20444;-59
2021/08/14 09:51:33;;;;;;;3.45;1.55;;;;;;;37.46;27.17;101815.84;5034373;28;20207;-59
2021/08/14 09:54:01;;;;;;;4.43;1.73;;;;;;;37.63;26.43;101817.19;5035940;28;20458;-60
2021/08/14 09:56:27;;;;;;;4.80;1.60;;;;;;;37.94;27.10;101811.50;5034340;28;20025;-59
2021/08/14 09:58:53;;;;;;;5.18;2.38;;;;;;;38.31;25.76;101807.06;5035853;28;20482;-60
2021/08/14 10:01:19;;;;;;;3.90;3.60;;;;;;;38.73;26.34;101809.28;5035669;28;20026;-59
2021/08/14 10:03:46;;;;;;;4.88;2.10;;;;;;;39.48;25.09;101804.06;5034029;28;20433;-60
2021/08/14 10:06:12;;;;;;;6.07;2.00;;;;;;;40.87;24.49;101800.69;5035329;28;20029;-60
2021/08/14 10:08:38;;;;;;;3.95;1.90;;;;;;;42.38;22.63;101806.03;5033920;28;20564;-60
2021/08/14 10:11:07;;;;;;;5.18;1.60;;;;;;;42.23;23.11;101795.94;5035524;28;20029;-59
2021/08/14 10:13:33;;;;;;;3.42;1.42;;;;;;;41.65;23.61;101803.41;5034349;28;20071;-59
2021/08/14 10:15:59;;;;;;;3.13;1.60;;;;;;;41.31;24.00;101803.81;5035455;28;20021;-60
2021/08/14 10:18:25;;;;;;;4.78;1.80;;;;;;;41.08;23.69;101804.81;5035331;28;20029;-60
2021/08/14 10:20:50;;;;;;;5.22;1.38;;;;;;;41.01;23.64;101807.22;5035558;28;20067;-59
2021/08/14 10:23:22;;;;;;;3.35;1.70;;;;;;;41.05;23.97;101795.00;5035476;28;20037;-59
2021/08/14 10:25:48;;;;;;;4.88;1.88;;;;;;;41.17;24.05;101792.53;5001277;28;20087;-60
2021/08/14 10:28:15;;;;;;;5.82;1.60;;;;;;;41.29;23.52;101794.84;5033680;28;20427;-60
2021/08/14 10:30:50;;;;;;;4.70;2.15;;;;;;;41.38;23.36;101801.44;5034292;28;20045;-60
2021/08/14 10:33:27;;;;;;;3.25;1.88;;;;;;;41.48;23.31;101794.78;5035027;28;20413;-59
2021/08/14 10:36:20;;;;;;;5.88;2.00;;;;;;;41.59;23.54;101794.25;5034616;28;20036;-59
2021/08/14 10:38:50;;;;;;;4.10;1.95;;;;;;;41.84;23.35;101789.22;5034779;28;20100;-59
2021/08/14 10:41:16;;;;;;;4.25;1.73;;;;;;;42.07;23.35;101794.63;5034343;28;20026;-59
2021/08/14 10:43:50;;;;;;;4.00;1.80;;;;;;;42.30;22.78;101787.03;5034685;28;20030;-59
2021/08/14 10:46:31;;;;;;;5.28;2.20;;;;;;;42.50;22.58;101786.53;5033823;28;20462;-60
2021/08/14 10:48:58;;;;;;;6.25;2.60;;;;;;;42.64;22.74;101792.97;5034246;28;20021;-60
2021/08/14 10:51:26;;;;;;;4.85;2.03;;;;;;;42.74;22.70;101786.25;5034734;28;20463;-60
2021/08/14 10:53:51;;;;;;;6.45;1.83;;;;;;;42.90;22.47;101785.50;5033322;28;20021;-60
2021/08/14 10:57:02;;;;;;;5.55;1.75;;;;;;;43.09;22.02;101782.47;5033049;28;20558;-59
2021/08/14 10:59:39;;;;;;;4.30;2.10;;;;;;;43.37;22.00;101788.78;5032411;28;20033;-60
2021/08/14 11:02:10;;;;;;;5.18;2.08;;;;;;;43.47;21.69;101782.84;5034571;28;20030;-60
2021/08/14 11:04:46;;;;;;;5.07;2.35;;;;;;;43.65;21.63;101792.16;5034649;28;20104;-60
2021/08/14 11:07:20;;;;;;;5.28;2.00;;;;;;;43.80;21.46;101784.13;5033673;28;20437;-60
2021/08/14 11:09:48;;;;;;;3.85;2.50;;;;;;;43.89;21.50;101784.13;5034564;28;20021;-60
2021/08/14 11:12:32;;;;;;;4.05;2.22;;;;;;;44.01;21.79;101787.94;5034838;28;20075;-60
2021/08/14 11:15:14;;;;;;;5.50;2.40;;;;;;;44.05;21.33;101782.47;5034168;28;20018;-60
2021/08/14 11:17:39;;;;;;;4.25;2.70;;;;;;;44.16;21.34;101783.00;5032589;28;20025;-60
2021/08/14 11:20:25;;;;;;;3.58;1.90;;;;;;;44.29;21.72;101776.34;5034386;28;20048;-60
2021/08/14 11:22:51;;;;;;;10.95;2.17;;;;;;;44.24;21.22;101773.69;5033693;28;20022;-60